Ramona, Texas
Current Conditions -  °F | °C
As of 12:15 PM on Thursday 30 Oct 2014 (Local Time) from KT65 Reporting Station
Broken Clouds Broken Clouds  
Wind Chill: 85°   Ceiling: 3200
Heat Index: 87°   Visibility: 10mi
Dew Point: 65°   Wind: 5mph
Humidity: 50%   Direction: 100°E
Pressure: 30.08"   Gusts: NA
Location:  26.1701°N, 97.9943°W
Report Text: KT65 301715Z AUTO 10004KT 10SM BKN032 BKN039 BKN044 30/18 A3008 RMK AO2 T02960183
Loading
Personal Weather Stations






























Interactive Weather Map New forecast layout! Learn more

10-Day Weather Forecast

Advertisements
Track Severe Weather on mobile